Terminal Aerodrome Forecast
Issued by NWS

Home | Current Version | Previous Version | Text Only | Print | Product List | Glossary Off
Versions: 1 2 3 4 5 6 7 8 9 10 11 12 13 14 15

000
FTUS43 KMPX 281800 AAA
TAFRWF
TAF AMD
KRWF 281835Z 2819/2918 12010KT 4SM -SHRA OVC008
      TEMPO 2819/2821 2SM -SHRA BR OVC007
     FM290200 13005KT 5SM BR VCSH OVC007
     FM290700 12008KT 3SM -DZ BR OVC003
     FM291500 19004KT 5SM BR OVC007=

USA.gov is the U.S. government's official web portal to all federal, state and local government web resources and services.